Time,TemperatureF,DewpointF,PressureIn,WindDirection,WindDirectionDegrees,WindSpeedMPH,WindSpeedGustMPH,Humidity,HourlyPrecipIn,Conditions,Clouds,dailyrainin,SolarRadiationWatts/m^2,SoftwareType,DateUTC
2013-03-08 02:00:00,29.0,27.0,30.31,NE,47,2.0,-999.0,94,-99.99,,,-99.99,0.000000,,2013-03-08 08:00:00,
2013-03-08 02:52:00,29.0,27.0,30.31,NE,47,2.0,-999.0,94,-99.99,,,-99.99,0.000000,,2013-03-08 08:52:00,
2013-03-08 03:00:00,30.0,28.0,30.30,NE,44,2.0,-999.0,91,-99.99,,,-99.99,0.000000,,2013-03-08 09:00:00,
2013-03-08 03:52:00,30.0,28.0,30.30,NE,44,2.0,-999.0,91,-99.99,,,-99.99,0.000000,,2013-03-08 09:52:00,
2013-03-08 04:00:00,31.0,28.0,30.32,NE,49,2.0,-999.0,90,-99.99,,,-99.99,0.000000,,2013-03-08 10:00:00,
2013-03-08 04:52:00,31.0,28.0,30.32,NE,49,2.0,-999.0,90,-99.99,,,-99.99,0.000000,,2013-03-08 10:52:00,
2013-03-08 05:00:00,30.0,27.0,30.32,ENE,65,2.0,-999.0,88,-99.99,,,-99.99,0.000000,,2013-03-08 11:00:00,
2013-03-08 05:52:00,30.0,27.0,30.32,ENE,65,2.0,-999.0,88,-99.99,,,-99.99,0.000000,,2013-03-08 11:52:00,
2013-03-08 06:00:00,30.0,27.0,30.31,ENE,62,3.0,-999.0,90,-99.99,,,-99.99,0.240000,,2013-03-08 12:00:00,
2013-03-08 06:53:00,30.0,27.0,30.31,ENE,62,3.0,-999.0,90,-99.99,,,-99.99,0.240000,,2013-03-08 12:53:00,
2013-03-08 07:00:00,32.0,28.0,30.33,NE,51,2.0,-999.0,86,-99.99,,,-99.99,43.630001,,2013-03-08 13:00:00,
2013-03-08 07:52:00,32.0,28.0,30.33,NE,51,2.0,-999.0,86,-99.99,,,-99.99,43.630001,,2013-03-08 13:52:00,
2013-03-08 08:00:00,34.0,28.0,30.36,NE,39,4.0,-999.0,77,-99.99,,,-99.99,232.399994,,2013-03-08 14:00:00,
2013-03-08 08:53:00,34.0,28.0,30.36,NE,39,4.0,-999.0,77,-99.99,,,-99.99,232.399994,,2013-03-08 14:53:00,
2013-03-08 09:00:00,39.0,29.0,30.38,NNE,28,5.0,-999.0,66,-99.99,,,-99.99,430.000000,,2013-03-08 15:00:00,
2013-03-08 09:53:00,39.0,29.0,30.38,NNE,28,5.0,-999.0,66,-99.99,,,-99.99,430.000000,,2013-03-08 15:53:00,
2013-03-08 10:00:00,44.0,31.0,30.37,NNE,31,3.0,-999.0,60,-99.99,,,-99.99,598.299988,,2013-03-08 16:00:00,
2013-03-08 10:52:00,44.0,31.0,30.37,NNE,31,3.0,-999.0,60,-99.99,,,-99.99,598.299988,,2013-03-08 16:52:00,
2013-03-08 11:00:00,49.0,29.0,30.36,NE,37,3.0,-999.0,45,-99.99,,,-99.99,720.000000,,2013-03-08 17:00:00,
2013-03-08 11:52:00,49.0,29.0,30.36,NE,37,3.0,-999.0,45,-99.99,,,-99.99,720.000000,,2013-03-08 17:52:00,
2013-03-08 12:00:00,52.0,29.0,30.31,NNE,23,5.0,-999.0,41,-99.99,,,-99.99,784.000000,,2013-03-08 18:00:00,
2013-03-08 12:52:00,52.0,29.0,30.31,NNE,23,5.0,-999.0,41,-99.99,,,-99.99,784.000000,,2013-03-08 18:52:00,
2013-03-08 13:00:00,55.0,26.0,30.28,North,7,7.0,-999.0,32,-99.99,,,-99.99,782.000000,,2013-03-08 19:00:00,
2013-03-08 13:52:00,55.0,26.0,30.28,North,7,7.0,-999.0,32,-99.99,,,-99.99,782.000000,,2013-03-08 19:52:00,
2013-03-08 14:00:00,58.0,22.0,30.27,NNE,14,6.0,-999.0,24,-99.99,,,-99.99,719.000000,,2013-03-08 20:00:00,
2013-03-08 14:53:00,58.0,22.0,30.27,NNE,14,6.0,-999.0,24,-99.99,,,-99.99,719.000000,,2013-03-08 20:53:00,
2013-03-08 15:00:00,61.0,18.0,30.26,NNE,15,7.0,-999.0,19,-99.99,,,-99.99,597.400024,,2013-03-08 21:00:00,
2013-03-08 15:52:00,61.0,18.0,30.26,NNE,15,7.0,-999.0,19,-99.99,,,-99.99,597.400024,,2013-03-08 21:52:00,
2013-03-08 16:00:00,62.0,16.0,30.26,NNE,25,5.0,-999.0,17,-99.99,,,-99.99,423.799988,,2013-03-08 22:00:00,
2013-03-08 16:53:00,62.0,16.0,30.26,NNE,25,5.0,-999.0,17,-99.99,,,-99.99,423.799988,,2013-03-08 22:53:00,
2013-03-08 17:00:00,60.0,22.0,30.26,NE,40,3.0,-999.0,23,-99.99,,,-99.99,222.899994,,2013-03-08 23:00:00,
2013-03-08 17:53:00,60.0,22.0,30.26,NE,40,3.0,-999.0,23,-99.99,,,-99.99,222.899994,,2013-03-08 23:53:00,
2013-03-08 18:00:00,51.0,28.0,30.27,NE,52,1.0,-999.0,40,-99.99,,,-99.99,35.360001,,2013-03-09 00:00:00,
2013-03-08 18:52:00,51.0,28.0,30.27,NE,52,1.0,-999.0,40,-99.99,,,-99.99,35.360001,,2013-03-09 00:52:00,
2013-03-08 21:00:00,41.0,29.0,30.25,NE,36,2.0,-999.0,62,-99.99,,,-99.99,0.000000,,2013-03-09 03:00:00,
2013-03-08 21:52:00,41.0,29.0,30.25,NE,36,2.0,-999.0,62,-99.99,,,-99.99,0.000000,,2013-03-09 03:52:00,
2013-03-08 22:00:00,36.0,30.0,30.24,NE,46,3.0,-999.0,77,-99.99,,,-99.99,0.000000,,2013-03-09 04:00:00,
2013-03-08 22:52:00,36.0,30.0,30.24,NE,46,3.0,-999.0,77,-99.99,,,-99.99,0.000000,,2013-03-09 04:52:00,
2013-03-08 23:00:00,35.0,29.0,30.24,NE,37,2.0,-999.0,78,-99.99,,,-99.99,0.000000,,2013-03-09 05:00:00,
2013-03-08 23:53:00,35.0,29.0,30.24,NE,37,2.0,-999.0,78,-99.99,,,-99.99,0.000000,,2013-03-09 05:53:00,